sensor_id;sensor_type;location;lat;lon;timestamp;P1;durP1;ratioP1;P2;durP2;ratioP2
60016;SDS011;45869;52.698;6.210;2023-05-14T00:00:20;13.57;;;10.00;;
60016;SDS011;45869;52.698;6.210;2023-05-14T00:02:46;14.85;;;10.02;;
60016;SDS011;45869;52.698;6.210;2023-05-14T00:05:12;15.98;;;9.43;;
60016;SDS011;45869;52.698;6.210;2023-05-14T00:07:38;13.70;;;9.68;;
60016;SDS011;45869;52.698;6.210;2023-05-14T00:10:04;12.00;;;8.75;;
60016;SDS011;45869;52.698;6.210;2023-05-14T00:12:30;15.18;;;9.60;;
60016;SDS011;45869;52.698;6.210;2023-05-14T00:14:56;15.35;;;9.90;;
60016;SDS011;45869;52.698;6.210;2023-05-14T00:17:22;16.95;;;10.27;;
60016;SDS011;45869;52.698;6.210;2023-05-14T00:19:48;12.00;;;8.90;;
60016;SDS011;45869;52.698;6.210;2023-05-14T00:22:15;12.52;;;8.70;;
60016;SDS011;45869;52.698;6.210;2023-05-14T00:24:41;13.93;;;9.10;;
60016;SDS011;45869;52.698;6.210;2023-05-14T00:27:07;12.50;;;9.20;;
60016;SDS011;45869;52.698;6.210;2023-05-14T00:29:34;13.13;;;9.43;;
60016;SDS011;45869;52.698;6.210;2023-05-14T00:32:00;11.60;;;9.63;;
60016;SDS011;45869;52.698;6.210;2023-05-14T00:34:26;15.13;;;9.63;;
60016;SDS011;45869;52.698;6.210;2023-05-14T00:36:52;13.80;;;10.23;;
60016;SDS011;45869;52.698;6.210;2023-05-14T00:39:18;13.80;;;10.00;;
60016;SDS011;45869;52.698;6.210;2023-05-14T00:41:44;12.45;;;9.18;;
60016;SDS011;45869;52.698;6.210;2023-05-14T00:44:10;14.68;;;10.38;;
60016;SDS011;45869;52.698;6.210;2023-05-14T00:46:36;12.68;;;9.65;;
60016;SDS011;45869;52.698;6.210;2023-05-14T00:49:02;13.52;;;10.27;;
60016;SDS011;45869;52.698;6.210;2023-05-14T00:51:28;12.20;;;9.63;;
60016;SDS011;45869;52.698;6.210;2023-05-14T00:53:54;15.60;;;10.45;;
60016;SDS011;45869;52.698;6.210;2023-05-14T00:56:20;14.27;;;10.00;;
60016;SDS011;45869;52.698;6.210;2023-05-14T00:58:46;13.82;;;9.38;;
60016;SDS011;45869;52.698;6.210;2023-05-14T01:01:12;16.48;;;10.82;;
60016;SDS011;45869;52.698;6.210;2023-05-14T01:03:39;14.38;;;10.25;;
60016;SDS011;45869;52.698;6.210;2023-05-14T01:08:35;12.05;;;9.77;;
60016;SDS011;45869;52.698;6.210;2023-05-14T01:16:06;12.85;;;10.20;;
60016;SDS011;45869;52.698;6.210;2023-05-14T01:18:35;13.13;;;10.35;;
60016;SDS011;45869;52.698;6.210;2023-05-14T01:21:01;13.57;;;10.27;;
60016;SDS011;45869;52.698;6.210;2023-05-14T01:23:30;13.40;;;10.65;;
60016;SDS011;45869;52.698;6.210;2023-05-14T01:25:56;11.70;;;10.05;;
60016;SDS011;45869;52.698;6.210;2023-05-14T01:28:25;13.60;;;9.93;;
60016;SDS011;45869;52.698;6.210;2023-05-14T01:30:57;14.00;;;10.27;;
60016;SDS011;45869;52.698;6.210;2023-05-14T01:33:24;15.05;;;10.93;;
60016;SDS011;45869;52.698;6.210;2023-05-14T01:35:50;12.75;;;10.48;;
60016;SDS011;45869;52.698;6.210;2023-05-14T01:38:17;13.00;;;10.27;;
60016;SDS011;45869;52.698;6.210;2023-05-14T01:40:45;15.10;;;11.73;;
60016;SDS011;45869;52.698;6.210;2023-05-14T01:43:11;15.20;;;10.57;;
60016;SDS011;45869;52.698;6.210;2023-05-14T01:45:40;14.63;;;11.60;;
60016;SDS011;45869;52.698;6.210;2023-05-14T01:48:06;13.90;;;9.93;;
60016;SDS011;45869;52.698;6.210;2023-05-14T01:50:33;14.30;;;11.23;;
60016;SDS011;45869;52.698;6.210;2023-05-14T01:52:59;15.75;;;10.95;;
60016;SDS011;45869;52.698;6.210;2023-05-14T01:55:25;13.07;;;10.43;;
60016;SDS011;45869;52.698;6.210;2023-05-14T01:57:51;13.38;;;10.10;;
60016;SDS011;45869;52.698;6.210;2023-05-14T02:00:21;12.43;;;9.75;;
60016;SDS011;45869;52.698;6.210;2023-05-14T02:02:49;13.38;;;10.20;;
60016;SDS011;45869;52.698;6.210;2023-05-14T02:05:15;15.95;;;12.02;;
60016;SDS011;45869;52.698;6.210;2023-05-14T02:07:41;15.07;;;10.85;;
60016;SDS011;45869;52.698;6.210;2023-05-14T02:10:07;14.75;;;9.82;;
60016;SDS011;45869;52.698;6.210;2023-05-14T02:12:33;12.55;;;10.15;;
60016;SDS011;45869;52.698;6.210;2023-05-14T02:14:59;14.80;;;10.95;;
60016;SDS011;45869;52.698;6.210;2023-05-14T02:17:25;14.15;;;10.30;;
60016;SDS011;45869;52.698;6.210;2023-05-14T02:19:51;14.63;;;10.02;;
60016;SDS011;45869;52.698;6.210;2023-05-14T02:22:17;12.27;;;10.15;;
60016;SDS011;45869;52.698;6.210;2023-05-14T02:24:43;14.45;;;10.45;;
60016;SDS011;45869;52.698;6.210;2023-05-14T02:27:09;13.25;;;9.93;;
60016;SDS011;45869;52.698;6.210;2023-05-14T02:29:37;12.77;;;10.18;;
60016;SDS011;45869;52.698;6.210;2023-05-14T02:32:03;12.68;;;9.68;;
60016;SDS011;45869;52.698;6.210;2023-05-14T02:34:29;12.95;;;10.82;;
60016;SDS011;45869;52.698;6.210;2023-05-14T02:36:57;12.23;;;9.75;;
60016;SDS011;45869;52.698;6.210;2023-05-14T02:39:23;13.75;;;9.85;;
60016;SDS011;45869;52.698;6.210;2023-05-14T02:41:49;13.02;;;9.68;;
60016;SDS011;45869;52.698;6.210;2023-05-14T02:44:15;12.40;;;10.05;;
60016;SDS011;45869;52.698;6.210;2023-05-14T02:46:44;12.15;;;9.63;;
60016;SDS011;45869;52.698;6.210;2023-05-14T02:49:10;12.88;;;9.15;;
60016;SDS011;45869;52.698;6.210;2023-05-14T02:51:36;13.45;;;11.18;;
60016;SDS011;45869;52.698;6.210;2023-05-14T02:54:05;15.68;;;11.35;;
60016;SDS011;45869;52.698;6.210;2023-05-14T02:56:31;14.77;;;10.70;;
60016;SDS011;45869;52.698;6.210;2023-05-14T02:58:57;14.07;;;10.52;;
60016;SDS011;45869;52.698;6.210;2023-05-14T03:01:23;13.80;;;10.35;;
60016;SDS011;45869;52.698;6.210;2023-05-14T03:03:49;13.75;;;10.63;;
60016;SDS011;45869;52.698;6.210;2023-05-14T03:06:15;15.32;;;10.93;;
60016;SDS011;45869;52.698;6.210;2023-05-14T03:08:41;15.23;;;11.23;;
60016;SDS011;45869;52.698;6.210;2023-05-14T03:11:10;12.95;;;10.05;;
60016;SDS011;45869;52.698;6.210;2023-05-14T03:13:36;14.15;;;10.52;;
60016;SDS011;45869;52.698;6.210;2023-05-14T03:16:02;14.70;;;9.50;;
60016;SDS011;45869;52.698;6.210;2023-05-14T03:18:31;11.82;;;9.40;;
60016;SDS011;45869;52.698;6.210;2023-05-14T03:21:01;13.20;;;9.57;;
60016;SDS011;45869;52.698;6.210;2023-05-14T03:23:27;13.23;;;10.27;;
60016;SDS011;45869;52.698;6.210;2023-05-14T03:25:56;15.02;;;10.32;;
60016;SDS011;45869;52.698;6.210;2023-05-14T03:28:22;13.43;;;10.20;;
60016;SDS011;45869;52.698;6.210;2023-05-14T03:30:48;10.82;;;8.55;;
60016;SDS011;45869;52.698;6.210;2023-05-14T03:33:14;11.25;;;7.93;;
60016;SDS011;45869;52.698;6.210;2023-05-14T03:35:40;12.82;;;9.73;;
60016;SDS011;45869;52.698;6.210;2023-05-14T03:38:07;10.15;;;8.90;;
60016;SDS011;45869;52.698;6.210;2023-05-14T03:40:33;12.68;;;8.73;;
60016;SDS011;45869;52.698;6.210;2023-05-14T03:43:01;10.80;;;8.75;;
60016;SDS011;45869;52.698;6.210;2023-05-14T03:45:27;10.07;;;8.07;;
60016;SDS011;45869;52.698;6.210;2023-05-14T03:47:54;10.68;;;8.40;;
60016;SDS011;45869;52.698;6.210;2023-05-14T03:50:20;10.85;;;8.35;;
60016;SDS011;45869;52.698;6.210;2023-05-14T03:52:49;11.20;;;8.30;;
60016;SDS011;45869;52.698;6.210;2023-05-14T03:55:16;10.52;;;8.40;;
60016;SDS011;45869;52.698;6.210;2023-05-14T03:57:42;11.10;;;8.75;;
60016;SDS011;45869;52.698;6.210;2023-05-14T04:00:11;10.38;;;7.85;;
60016;SDS011;45869;52.698;6.210;2023-05-14T04:02:37;10.60;;;8.30;;
60016;SDS011;45869;52.698;6.210;2023-05-14T04:05:03;13.05;;;8.55;;
60016;SDS011;45869;52.698;6.210;2023-05-14T04:07:29;9.45;;;8.02;;
60016;SDS011;45869;52.698;6.210;2023-05-14T04:09:55;9.82;;;7.72;;
60016;SDS011;45869;52.698;6.210;2023-05-14T04:12:21;10.98;;;8.15;;
60016;SDS011;45869;52.698;6.210;2023-05-14T04:14:51;10.57;;;8.50;;
60016;SDS011;45869;52.698;6.210;2023-05-14T04:17:17;15.40;;;9.98;;
60016;SDS011;45869;52.698;6.210;2023-05-14T04:19:43;10.23;;;8.10;;
60016;SDS011;45869;52.698;6.210;2023-05-14T04:22:09;9.50;;;7.70;;
60016;SDS011;45869;52.698;6.210;2023-05-14T04:24:35;9.65;;;7.20;;
60016;SDS011;45869;52.698;6.210;2023-05-14T04:27:01;11.40;;;8.30;;
60016;SDS011;45869;52.698;6.210;2023-05-14T04:29:27;11.82;;;8.00;;
60016;SDS011;45869;52.698;6.210;2023-05-14T04:31:53;11.05;;;8.63;;
60016;SDS011;45869;52.698;6.210;2023-05-14T04:34:22;10.30;;;8.10;;
60016;SDS011;45869;52.698;6.210;2023-05-14T04:36:48;11.55;;;9.02;;
60016;SDS011;45869;52.698;6.210;2023-05-14T04:39:15;13.40;;;8.95;;
60016;SDS011;45869;52.698;6.210;2023-05-14T04:41:41;12.90;;;8.93;;
60016;SDS011;45869;52.698;6.210;2023-05-14T04:44:07;13.63;;;10.23;;
60016;SDS011;45869;52.698;6.210;2023-05-14T04:46:33;9.60;;;7.90;;
60016;SDS011;45869;52.698;6.210;2023-05-14T04:48:59;10.57;;;8.30;;
60016;SDS011;45869;52.698;6.210;2023-05-14T04:51:25;11.60;;;8.90;;
60016;SDS011;45869;52.698;6.210;2023-05-14T04:53:54;12.30;;;9.20;;
60016;SDS011;45869;52.698;6.210;2023-05-14T04:56:20;12.00;;;8.95;;
60016;SDS011;45869;52.698;6.210;2023-05-14T04:58:46;15.93;;;10.88;;
60016;SDS011;45869;52.698;6.210;2023-05-14T05:01:12;13.55;;;9.68;;
60016;SDS011;45869;52.698;6.210;2023-05-14T05:03:38;14.18;;;9.80;;
60016;SDS011;45869;52.698;6.210;2023-05-14T05:06:04;12.38;;;8.95;;
60016;SDS011;45869;52.698;6.210;2023-05-14T05:08:30;14.20;;;10.32;;
60016;SDS011;45869;52.698;6.210;2023-05-14T05:10:56;14.05;;;10.25;;
60016;SDS011;45869;52.698;6.210;2023-05-14T05:13:25;15.80;;;10.88;;
60016;SDS011;45869;52.698;6.210;2023-05-14T05:15:51;16.45;;;10.68;;
60016;SDS011;45869;52.698;6.210;2023-05-14T05:18:17;18.08;;;11.60;;
60016;SDS011;45869;52.698;6.210;2023-05-14T05:20:43;13.85;;;10.32;;
60016;SDS011;45869;52.698;6.210;2023-05-14T05:23:18;15.13;;;10.43;;
60016;SDS011;45869;52.698;6.210;2023-05-14T05:25:45;18.45;;;11.35;;
60016;SDS011;45869;52.698;6.210;2023-05-14T05:28:11;19.95;;;12.60;;
60016;SDS011;45869;52.698;6.210;2023-05-14T05:30:37;17.67;;;12.18;;
60016;SDS011;45869;52.698;6.210;2023-05-14T05:33:06;20.85;;;12.98;;
60016;SDS011;45869;52.698;6.210;2023-05-14T05:35:32;24.42;;;13.98;;
60016;SDS011;45869;52.698;6.210;2023-05-14T05:37:58;22.90;;;14.13;;
60016;SDS011;45869;52.698;6.210;2023-05-14T05:40:24;19.60;;;13.00;;
60016;SDS011;45869;52.698;6.210;2023-05-14T05:42:50;22.00;;;14.40;;
60016;SDS011;45869;52.698;6.210;2023-05-14T05:45:16;18.17;;;12.85;;
60016;SDS011;45869;52.698;6.210;2023-05-14T05:47:42;19.48;;;14.15;;
60016;SDS011;45869;52.698;6.210;2023-05-14T05:50:08;18.92;;;13.43;;
60016;SDS011;45869;52.698;6.210;2023-05-14T05:52:34;17.33;;;12.45;;
60016;SDS011;45869;52.698;6.210;2023-05-14T05:55:00;20.67;;;14.20;;
60016;SDS011;45869;52.698;6.210;2023-05-14T05:57:26;20.20;;;13.63;;
60016;SDS011;45869;52.698;6.210;2023-05-14T05:59:52;20.60;;;14.65;;
60016;SDS011;45869;52.698;6.210;2023-05-14T06:02:18;20.80;;;13.52;;
60016;SDS011;45869;52.698;6.210;2023-05-14T06:04:44;19.98;;;14.13;;
60016;SDS011;45869;52.698;6.210;2023-05-14T06:07:11;21.17;;;13.95;;
60016;SDS011;45869;52.698;6.210;2023-05-14T06:09:37;20.20;;;13.38;;
60016;SDS011;45869;52.698;6.210;2023-05-14T06:12:03;20.33;;;14.30;;
60016;SDS011;45869;52.698;6.210;2023-05-14T06:14:29;16.83;;;13.05;;
60016;SDS011;45869;52.698;6.210;2023-05-14T06:16:55;21.15;;;13.90;;
60016;SDS011;45869;52.698;6.210;2023-05-14T06:19:22;22.80;;;13.70;;
60016;SDS011;45869;52.698;6.210;2023-05-14T06:21:48;17.30;;;12.88;;
60016;SDS011;45869;52.698;6.210;2023-05-14T06:24:14;17.83;;;12.88;;
60016;SDS011;45869;52.698;6.210;2023-05-14T06:26:40;22.75;;;13.50;;
60016;SDS011;45869;52.698;6.210;2023-05-14T06:29:06;18.15;;;11.98;;
60016;SDS011;45869;52.698;6.210;2023-05-14T06:31:32;17.52;;;12.38;;
60016;SDS011;45869;52.698;6.210;2023-05-14T06:33:58;20.13;;;12.82;;
60016;SDS011;45869;52.698;6.210;2023-05-14T06:36:28;19.38;;;11.98;;
60016;SDS011;45869;52.698;6.210;2023-05-14T06:38:57;19.10;;;12.13;;
60016;SDS011;45869;52.698;6.210;2023-05-14T06:41:23;18.48;;;10.40;;
60016;SDS011;45869;52.698;6.210;2023-05-14T06:43:49;16.75;;;11.55;;
60016;SDS011;45869;52.698;6.210;2023-05-14T06:46:15;16.70;;;9.93;;
60016;SDS011;45869;52.698;6.210;2023-05-14T06:48:41;15.45;;;10.10;;
60016;SDS011;45869;52.698;6.210;2023-05-14T06:51:07;15.50;;;10.65;;
60016;SDS011;45869;52.698;6.210;2023-05-14T06:53:33;18.38;;;10.52;;
60016;SDS011;45869;52.698;6.210;2023-05-14T06:55:59;17.92;;;10.90;;
60016;SDS011;45869;52.698;6.210;2023-05-14T06:58:25;16.33;;;9.75;;
60016;SDS011;45869;52.698;6.210;2023-05-14T07:00:51;15.32;;;9.85;;
60016;SDS011;45869;52.698;6.210;2023-05-14T07:03:17;14.30;;;9.65;;
60016;SDS011;45869;52.698;6.210;2023-05-14T07:05:43;19.65;;;11.18;;
60016;SDS011;45869;52.698;6.210;2023-05-14T07:08:12;14.13;;;9.55;;
60016;SDS011;45869;52.698;6.210;2023-05-14T07:10:38;14.73;;;9.10;;
60016;SDS011;45869;52.698;6.210;2023-05-14T07:13:04;17.15;;;9.95;;
60016;SDS011;45869;52.698;6.210;2023-05-14T07:15:30;15.35;;;9.30;;
60016;SDS011;45869;52.698;6.210;2023-05-14T07:18:03;12.88;;;8.13;;
60016;SDS011;45869;52.698;6.210;2023-05-14T07:20:29;14.77;;;9.80;;
60016;SDS011;45869;52.698;6.210;2023-05-14T07:22:57;16.10;;;10.25;;
60016;SDS011;45869;52.698;6.210;2023-05-14T07:25:23;16.15;;;8.88;;
60016;SDS011;45869;52.698;6.210;2023-05-14T07:27:50;15.40;;;8.13;;
60016;SDS011;45869;52.698;6.210;2023-05-14T07:30:16;13.32;;;8.20;;
60016;SDS011;45869;52.698;6.210;2023-05-14T07:32:42;11.18;;;7.93;;
60016;SDS011;45869;52.698;6.210;2023-05-14T07:35:08;15.60;;;8.70;;
60016;SDS011;45869;52.698;6.210;2023-05-14T07:37:35;10.15;;;7.15;;
60016;SDS011;45869;52.698;6.210;2023-05-14T07:40:01;12.45;;;7.70;;
60016;SDS011;45869;52.698;6.210;2023-05-14T07:42:27;13.98;;;7.93;;
60016;SDS011;45869;52.698;6.210;2023-05-14T07:44:53;13.98;;;7.55;;
60016;SDS011;45869;52.698;6.210;2023-05-14T07:47:20;13.45;;;7.35;;
60016;SDS011;45869;52.698;6.210;2023-05-14T07:49:46;14.70;;;8.27;;
60016;SDS011;45869;52.698;6.210;2023-05-14T07:52:12;12.90;;;7.43;;
60016;SDS011;45869;52.698;6.210;2023-05-14T07:54:38;14.77;;;7.82;;
60016;SDS011;45869;52.698;6.210;2023-05-14T07:57:04;16.20;;;8.30;;
60016;SDS011;45869;52.698;6.210;2023-05-14T07:59:30;13.65;;;8.27;;
60016;SDS011;45869;52.698;6.210;2023-05-14T08:01:56;13.52;;;7.50;;
60016;SDS011;45869;52.698;6.210;2023-05-14T08:04:22;14.10;;;8.07;;
60016;SDS011;45869;52.698;6.210;2023-05-14T08:06:48;12.55;;;6.80;;
60016;SDS011;45869;52.698;6.210;2023-05-14T08:09:14;13.73;;;7.65;;
60016;SDS011;45869;52.698;6.210;2023-05-14T08:11:40;11.60;;;8.10;;
60016;SDS011;45869;52.698;6.210;2023-05-14T08:14:06;13.68;;;8.05;;
60016;SDS011;45869;52.698;6.210;2023-05-14T08:16:32;12.77;;;7.32;;
60016;SDS011;45869;52.698;6.210;2023-05-14T08:18:58;12.30;;;7.60;;
60016;SDS011;45869;52.698;6.210;2023-05-14T08:21:24;12.57;;;8.10;;
60016;SDS011;45869;52.698;6.210;2023-05-14T08:23:52;13.32;;;7.30;;
60016;SDS011;45869;52.698;6.210;2023-05-14T08:26:20;10.52;;;6.88;;
60016;SDS011;45869;52.698;6.210;2023-05-14T08:28:46;12.57;;;7.15;;
60016;SDS011;45869;52.698;6.210;2023-05-14T08:31:12;13.40;;;7.57;;
60016;SDS011;45869;52.698;6.210;2023-05-14T08:33:39;11.15;;;6.65;;
60016;SDS011;45869;52.698;6.210;2023-05-14T08:36:05;9.65;;;7.00;;
60016;SDS011;45869;52.698;6.210;2023-05-14T08:38:31;11.73;;;6.60;;
60016;SDS011;45869;52.698;6.210;2023-05-14T08:40:58;10.85;;;6.90;;
60016;SDS011;45869;52.698;6.210;2023-05-14T08:43:36;9.73;;;5.93;;
60016;SDS011;45869;52.698;6.210;2023-05-14T08:46:04;10.75;;;6.10;;
60016;SDS011;45869;52.698;6.210;2023-05-14T08:48:34;10.32;;;5.38;;
60016;SDS011;45869;52.698;6.210;2023-05-14T08:51:00;8.27;;;5.47;;
60016;SDS011;45869;52.698;6.210;2023-05-14T08:53:26;11.55;;;5.72;;
60016;SDS011;45869;52.698;6.210;2023-05-14T08:55:52;9.20;;;5.47;;
60016;SDS011;45869;52.698;6.210;2023-05-14T08:58:18;9.90;;;6.22;;
60016;SDS011;45869;52.698;6.210;2023-05-14T09:00:44;11.73;;;5.80;;
60016;SDS011;45869;52.698;6.210;2023-05-14T09:03:10;10.60;;;5.60;;
60016;SDS011;45869;52.698;6.210;2023-05-14T09:05:37;10.40;;;6.18;;
60016;SDS011;45869;52.698;6.210;2023-05-14T09:08:03;10.52;;;5.50;;
60016;SDS011;45869;52.698;6.210;2023-05-14T09:10:29;9.88;;;5.30;;
60016;SDS011;45869;52.698;6.210;2023-05-14T09:12:55;9.35;;;5.30;;
60016;SDS011;45869;52.698;6.210;2023-05-14T09:15:21;11.90;;;5.60;;
60016;SDS011;45869;52.698;6.210;2023-05-14T09:17:47;10.57;;;5.65;;
60016;SDS011;45869;52.698;6.210;2023-05-14T09:20:14;11.82;;;5.20;;
60016;SDS011;45869;52.698;6.210;2023-05-14T09:22:43;10.38;;;5.57;;
60016;SDS011;45869;52.698;6.210;2023-05-14T09:25:09;10.57;;;5.05;;
60016;SDS011;45869;52.698;6.210;2023-05-14T09:27:36;10.48;;;5.28;;
60016;SDS011;45869;52.698;6.210;2023-05-14T09:30:06;9.43;;;4.60;;
60016;SDS011;45869;52.698;6.210;2023-05-14T09:32:39;9.43;;;4.35;;
60016;SDS011;45869;52.698;6.210;2023-05-14T09:35:08;10.60;;;5.05;;
60016;SDS011;45869;52.698;6.210;2023-05-14T09:37:39;9.07;;;4.78;;
60016;SDS011;45869;52.698;6.210;2023-05-14T09:40:07;9.73;;;4.45;;
60016;SDS011;45869;52.698;6.210;2023-05-14T09:42:33;7.63;;;4.47;;
60016;SDS011;45869;52.698;6.210;2023-05-14T09:44:59;8.32;;;5.00;;
60016;SDS011;45869;52.698;6.210;2023-05-14T09:47:25;9.85;;;4.30;;
60016;SDS011;45869;52.698;6.210;2023-05-14T09:49:51;10.38;;;5.10;;
60016;SDS011;45869;52.698;6.210;2023-05-14T09:52:22;9.90;;;4.38;;
60016;SDS011;45869;52.698;6.210;2023-05-14T09:54:49;11.30;;;5.65;;
60016;SDS011;45869;52.698;6.210;2023-05-14T09:57:16;10.23;;;4.40;;
60016;SDS011;45869;52.698;6.210;2023-05-14T09:59:42;11.35;;;4.85;;
60016;SDS011;45869;52.698;6.210;2023-05-14T10:02:11;8.43;;;4.97;;
60016;SDS011;45869;52.698;6.210;2023-05-14T10:04:40;10.63;;;4.40;;
60016;SDS011;45869;52.698;6.210;2023-05-14T10:07:06;7.18;;;3.85;;
60016;SDS011;45869;52.698;6.210;2023-05-14T10:09:33;7.95;;;4.28;;
60016;SDS011;45869;52.698;6.210;2023-05-14T10:11:59;7.82;;;3.78;;
60016;SDS011;45869;52.698;6.210;2023-05-14T10:14:27;9.10;;;3.70;;
60016;SDS011;45869;52.698;6.210;2023-05-14T10:16:54;9.20;;;4.20;;
60016;SDS011;45869;52.698;6.210;2023-05-14T10:19:22;8.32;;;4.32;;
60016;SDS011;45869;52.698;6.210;2023-05-14T10:21:52;8.63;;;3.47;;
60016;SDS011;45869;52.698;6.210;2023-05-14T10:24:20;7.43;;;4.00;;
60016;SDS011;45869;52.698;6.210;2023-05-14T10:26:46;9.32;;;4.10;;
60016;SDS011;45869;52.698;6.210;2023-05-14T10:29:13;9.30;;;3.50;;
60016;SDS011;45869;52.698;6.210;2023-05-14T10:31:52;5.97;;;3.10;;
60016;SDS011;45869;52.698;6.210;2023-05-14T10:34:37;6.13;;;3.97;;
60016;SDS011;45869;52.698;6.210;2023-05-14T10:37:11;6.75;;;3.15;;
60016;SDS011;45869;52.698;6.210;2023-05-14T10:39:39;9.13;;;3.40;;
60016;SDS011;45869;52.698;6.210;2023-05-14T10:42:05;6.20;;;3.58;;
60016;SDS011;45869;52.698;6.210;2023-05-14T10:44:47;6.82;;;3.60;;
60016;SDS011;45869;52.698;6.210;2023-05-14T10:47:14;5.47;;;3.00;;
60016;SDS011;45869;52.698;6.210;2023-05-14T10:49:41;5.28;;;3.28;;
60016;SDS011;45869;52.698;6.210;2023-05-14T10:52:08;7.78;;;3.20;;
60016;SDS011;45869;52.698;6.210;2023-05-14T10:54:34;7.13;;;3.17;;
60016;SDS011;45869;52.698;6.210;2023-05-14T10:57:00;6.93;;;2.92;;
60016;SDS011;45869;52.698;6.210;2023-05-14T10:59:29;8.43;;;2.97;;
60016;SDS011;45869;52.698;6.210;2023-05-14T11:01:58;6.22;;;2.70;;
60016;SDS011;45869;52.698;6.210;2023-05-14T11:04:27;4.55;;;2.80;;
60016;SDS011;45869;52.698;6.210;2023-05-14T11:06:53;6.15;;;2.95;;
60016;SDS011;45869;52.698;6.210;2023-05-14T11:09:20;5.47;;;2.88;;
60016;SDS011;45869;52.698;6.210;2023-05-14T11:11:46;4.75;;;2.55;;
60016;SDS011;45869;52.698;6.210;2023-05-14T11:14:12;5.97;;;2.90;;
60016;SDS011;45869;52.698;6.210;2023-05-14T11:16:39;7.22;;;3.08;;
60016;SDS011;45869;52.698;6.210;2023-05-14T11:19:05;5.65;;;2.85;;
60016;SDS011;45869;52.698;6.210;2023-05-14T11:21:31;4.45;;;2.40;;
60016;SDS011;45869;52.698;6.210;2023-05-14T11:24:00;5.57;;;2.75;;
60016;SDS011;45869;52.698;6.210;2023-05-14T11:26:27;6.38;;;3.22;;
60016;SDS011;45869;52.698;6.210;2023-05-14T11:28:53;7.28;;;3.33;;
60016;SDS011;45869;52.698;6.210;2023-05-14T11:31:20;7.55;;;3.15;;
60016;SDS011;45869;52.698;6.210;2023-05-14T11:33:47;6.45;;;2.83;;
60016;SDS011;45869;52.698;6.210;2023-05-14T11:36:13;7.97;;;3.28;;
60016;SDS011;45869;52.698;6.210;2023-05-14T11:38:45;6.18;;;2.70;;
60016;SDS011;45869;52.698;6.210;2023-05-14T11:41:16;4.80;;;2.85;;
60016;SDS011;45869;52.698;6.210;2023-05-14T11:43:44;4.15;;;2.30;;
60016;SDS011;45869;52.698;6.210;2023-05-14T11:46:15;7.00;;;2.40;;
60016;SDS011;45869;52.698;6.210;2023-05-14T11:48:41;5.25;;;2.88;;
60016;SDS011;45869;52.698;6.210;2023-05-14T11:51:08;5.70;;;2.83;;
60016;SDS011;45869;52.698;6.210;2023-05-14T11:53:34;7.65;;;2.70;;
60016;SDS011;45869;52.698;6.210;2023-05-14T11:56:00;6.75;;;2.80;;
60016;SDS011;45869;52.698;6.210;2023-05-14T11:58:27;5.40;;;2.72;;
60016;SDS011;45869;52.698;6.210;2023-05-14T12:00:57;5.90;;;3.30;;
60016;SDS011;45869;52.698;6.210;2023-05-14T12:03:23;7.97;;;2.80;;
60016;SDS011;45869;52.698;6.210;2023-05-14T12:05:54;8.18;;;3.10;;
60016;SDS011;45869;52.698;6.210;2023-05-14T12:08:27;6.57;;;2.70;;
60016;SDS011;45869;52.698;6.210;2023-05-14T12:10:53;5.03;;;2.50;;
60016;SDS011;45869;52.698;6.210;2023-05-14T12:13:20;5.07;;;2.17;;
60016;SDS011;45869;52.698;6.210;2023-05-14T12:15:53;5.88;;;2.20;;
60016;SDS011;45869;52.698;6.210;2023-05-14T12:18:20;5.90;;;2.17;;
60016;SDS011;45869;52.698;6.210;2023-05-14T12:20:47;4.18;;;1.80;;
60016;SDS011;45869;52.698;6.210;2023-05-14T12:23:13;6.60;;;2.40;;
60016;SDS011;45869;52.698;6.210;2023-05-14T12:25:40;5.10;;;2.17;;
60016;SDS011;45869;52.698;6.210;2023-05-14T12:28:14;4.10;;;1.77;;
60016;SDS011;45869;52.698;6.210;2023-05-14T12:30:40;5.03;;;2.10;;
60016;SDS011;45869;52.698;6.210;2023-05-14T12:33:06;6.30;;;2.22;;
60016;SDS011;45869;52.698;6.210;2023-05-14T12:35:32;5.72;;;2.10;;
60016;SDS011;45869;52.698;6.210;2023-05-14T12:37:58;5.32;;;1.77;;
60016;SDS011;45869;52.698;6.210;2023-05-14T12:40:26;4.93;;;1.98;;
60016;SDS011;45869;52.698;6.210;2023-05-14T12:42:52;5.88;;;2.13;;
60016;SDS011;45869;52.698;6.210;2023-05-14T12:45:18;3.72;;;1.70;;
60016;SDS011;45869;52.698;6.210;2023-05-14T12:47:45;6.13;;;1.88;;
60016;SDS011;45869;52.698;6.210;2023-05-14T12:50:11;4.35;;;1.70;;
60016;SDS011;45869;52.698;6.210;2023-05-14T12:52:37;2.83;;;1.80;;
60016;SDS011;45869;52.698;6.210;2023-05-14T12:55:03;5.13;;;1.75;;
60016;SDS011;45869;52.698;6.210;2023-05-14T12:57:29;5.90;;;1.80;;
60016;SDS011;45869;52.698;6.210;2023-05-14T12:59:55;5.70;;;2.15;;
60016;SDS011;45869;52.698;6.210;2023-05-14T13:02:22;6.07;;;2.10;;
60016;SDS011;45869;52.698;6.210;2023-05-14T13:04:50;4.82;;;2.00;;
60016;SDS011;45869;52.698;6.210;2023-05-14T13:07:16;4.25;;;1.90;;
60016;SDS011;45869;52.698;6.210;2023-05-14T13:09:42;5.50;;;2.13;;
60016;SDS011;45869;52.698;6.210;2023-05-14T13:12:08;6.28;;;2.20;;
60016;SDS011;45869;52.698;6.210;2023-05-14T13:14:34;4.22;;;2.38;;
60016;SDS011;45869;52.698;6.210;2023-05-14T13:17:03;6.15;;;2.47;;
60016;SDS011;45869;52.698;6.210;2023-05-14T13:19:30;4.53;;;2.03;;
60016;SDS011;45869;52.698;6.210;2023-05-14T13:21:57;5.60;;;2.10;;
60016;SDS011;45869;52.698;6.210;2023-05-14T13:24:23;4.50;;;2.08;;
60016;SDS011;45869;52.698;6.210;2023-05-14T13:26:49;3.15;;;2.13;;
60016;SDS011;45869;52.698;6.210;2023-05-14T13:29:15;8.50;;;2.50;;
60016;SDS011;45869;52.698;6.210;2023-05-14T13:31:41;4.32;;;1.95;;
60016;SDS011;45869;52.698;6.210;2023-05-14T13:34:07;5.97;;;1.90;;
60016;SDS011;45869;52.698;6.210;2023-05-14T13:36:34;3.72;;;2.00;;
60016;SDS011;45869;52.698;6.210;2023-05-14T13:39:04;7.30;;;1.77;;
60016;SDS011;45869;52.698;6.210;2023-05-14T13:41:33;4.93;;;1.90;;
60016;SDS011;45869;52.698;6.210;2023-05-14T13:43:59;3.25;;;1.90;;
60016;SDS011;45869;52.698;6.210;2023-05-14T13:46:25;4.30;;;1.60;;
60016;SDS011;45869;52.698;6.210;2023-05-14T13:48:51;6.05;;;2.20;;
60016;SDS011;45869;52.698;6.210;2023-05-14T13:51:17;5.85;;;1.83;;
60016;SDS011;45869;52.698;6.210;2023-05-14T13:53:46;3.03;;;1.65;;
60016;SDS011;45869;52.698;6.210;2023-05-14T13:56:12;4.50;;;1.70;;
60016;SDS011;45869;52.698;6.210;2023-05-14T13:58:38;6.00;;;1.80;;
60016;SDS011;45869;52.698;6.210;2023-05-14T14:01:07;3.60;;;1.80;;
60016;SDS011;45869;52.698;6.210;2023-05-14T14:03:33;4.38;;;1.92;;
60016;SDS011;45869;52.698;6.210;2023-05-14T14:05:59;2.78;;;1.77;;
60016;SDS011;45869;52.698;6.210;2023-05-14T14:08:25;3.10;;;1.85;;
60016;SDS011;45869;52.698;6.210;2023-05-14T14:10:51;4.78;;;1.60;;
60016;SDS011;45869;52.698;6.210;2023-05-14T14:13:19;2.28;;;1.38;;
60016;SDS011;45869;52.698;6.210;2023-05-14T14:15:48;5.53;;;1.80;;
60016;SDS011;45869;52.698;6.210;2023-05-14T14:18:14;4.03;;;1.60;;
60016;SDS011;45869;52.698;6.210;2023-05-14T14:20:40;3.10;;;1.40;;
60016;SDS011;45869;52.698;6.210;2023-05-14T14:23:06;3.45;;;1.60;;
60016;SDS011;45869;52.698;6.210;2023-05-14T14:25:32;2.60;;;1.30;;
60016;SDS011;45869;52.698;6.210;2023-05-14T14:27:58;3.22;;;1.65;;
60016;SDS011;45869;52.698;6.210;2023-05-14T14:30:26;3.85;;;1.60;;
60016;SDS011;45869;52.698;6.210;2023-05-14T14:32:52;4.20;;;1.30;;
60016;SDS011;45869;52.698;6.210;2023-05-14T14:35:19;3.78;;;1.30;;
60016;SDS011;45869;52.698;6.210;2023-05-14T14:37:45;2.80;;;1.50;;
60016;SDS011;45869;52.698;6.210;2023-05-14T14:40:16;2.72;;;1.50;;